sensor_id;sensor_type;location;lat;lon;timestamp;P1;durP1;ratioP1;P2;durP2;ratioP2
5237;SDS011;2639;49.700;7.962;2022-12-17T04:04:01;425.67;;;404.60;;
5237;SDS011;2639;49.700;7.962;2022-12-17T04:07:22;448.73;;;428.70;;
5237;SDS011;2639;49.700;7.962;2022-12-17T04:10:43;454.43;;;432.20;;
5237;SDS011;2639;49.700;7.962;2022-12-17T04:14:06;526.80;;;503.10;;
5237;SDS011;2639;49.700;7.962;2022-12-17T04:17:27;474.53;;;453.50;;
5237;SDS011;2639;49.700;7.962;2022-12-17T04:20:49;503.13;;;481.27;;
5237;SDS011;2639;49.700;7.962;2022-12-17T04:24:10;538.50;;;514.13;;
5237;SDS011;2639;49.700;7.962;2022-12-17T04:27:31;467.53;;;446.93;;
5237;SDS011;2639;49.700;7.962;2022-12-17T04:30:51;493.43;;;471.00;;
5237;SDS011;2639;49.700;7.962;2022-12-17T04:34:12;492.13;;;468.70;;
5237;SDS011;2639;49.700;7.962;2022-12-17T04:37:34;458.03;;;435.43;;
5237;SDS011;2639;49.700;7.962;2022-12-17T04:40:55;413.80;;;395.87;;
5237;SDS011;2639;49.700;7.962;2022-12-17T04:44:15;437.00;;;417.35;;
5237;SDS011;2639;49.700;7.962;2022-12-17T04:47:36;458.93;;;437.13;;
5237;SDS011;2639;49.700;7.962;2022-12-17T04:50:57;428.53;;;410.93;;
5237;SDS011;2639;49.700;7.962;2022-12-17T04:54:19;494.27;;;474.07;;
5237;SDS011;2639;49.700;7.962;2022-12-17T04:57:40;527.00;;;504.33;;
5237;SDS011;2639;49.700;7.962;2022-12-17T05:01:00;499.50;;;474.27;;
5237;SDS011;2639;49.700;7.962;2022-12-17T05:04:21;517.17;;;494.43;;
5237;SDS011;2639;49.700;7.962;2022-12-17T05:07:42;544.93;;;520.23;;
5237;SDS011;2639;49.700;7.962;2022-12-17T05:11:04;547.63;;;523.47;;
5237;SDS011;2639;49.700;7.962;2022-12-17T05:14:28;497.63;;;476.53;;
5237;SDS011;2639;49.700;7.962;2022-12-17T05:17:51;510.83;;;488.43;;
5237;SDS011;2639;49.700;7.962;2022-12-17T05:21:13;491.40;;;467.30;;
5237;SDS011;2639;49.700;7.962;2022-12-17T05:24:40;425.90;;;405.60;;
5237;SDS011;2639;49.700;7.962;2022-12-17T05:28:02;430.70;;;412.20;;
5237;SDS011;2639;49.700;7.962;2022-12-17T05:31:23;470.40;;;450.17;;
5237;SDS011;2639;49.700;7.962;2022-12-17T05:34:44;515.50;;;492.80;;
5237;SDS011;2639;49.700;7.962;2022-12-17T05:38:06;543.73;;;518.30;;
5237;SDS011;2639;49.700;7.962;2022-12-17T05:41:28;428.37;;;407.37;;
5237;SDS011;2639;49.700;7.962;2022-12-17T05:44:50;411.67;;;394.57;;
5237;SDS011;2639;49.700;7.962;2022-12-17T05:48:11;411.33;;;394.93;;
5237;SDS011;2639;49.700;7.962;2022-12-17T05:51:32;424.43;;;406.10;;
5237;SDS011;2639;49.700;7.962;2022-12-17T05:54:53;427.27;;;409.27;;
5237;SDS011;2639;49.700;7.962;2022-12-17T05:58:13;425.23;;;407.23;;
5237;SDS011;2639;49.700;7.962;2022-12-17T06:05:13;436.00;;;416.47;;
5237;SDS011;2639;49.700;7.962;2022-12-17T06:08:34;456.87;;;436.70;;
5237;SDS011;2639;49.700;7.962;2022-12-17T06:11:54;400.27;;;380.67;;
5237;SDS011;2639;49.700;7.962;2022-12-17T06:15:15;436.10;;;417.90;;
5237;SDS011;2639;49.700;7.962;2022-12-17T06:18:36;460.47;;;439.73;;
5237;SDS011;2639;49.700;7.962;2022-12-17T06:21:58;465.67;;;446.87;;
5237;SDS011;2639;49.700;7.962;2022-12-17T06:25:20;451.13;;;432.47;;
5237;SDS011;2639;49.700;7.962;2022-12-17T06:28:40;427.93;;;409.27;;
5237;SDS011;2639;49.700;7.962;2022-12-17T06:32:02;400.30;;;381.87;;
5237;SDS011;2639;49.700;7.962;2022-12-17T06:35:23;437.13;;;419.27;;
5237;SDS011;2639;49.700;7.962;2022-12-17T06:38:45;451.83;;;433.20;;
5237;SDS011;2639;49.700;7.962;2022-12-17T06:42:05;440.10;;;421.97;;
5237;SDS011;2639;49.700;7.962;2022-12-17T06:45:26;419.27;;;400.47;;
5237;SDS011;2639;49.700;7.962;2022-12-17T06:48:47;444.33;;;425.40;;
5237;SDS011;2639;49.700;7.962;2022-12-17T06:52:07;458.70;;;439.27;;
5237;SDS011;2639;49.700;7.962;2022-12-17T06:55:29;423.20;;;402.90;;
5237;SDS011;2639;49.700;7.962;2022-12-17T06:58:50;475.47;;;452.23;;
5237;SDS011;2639;49.700;7.962;2022-12-17T07:02:11;433.37;;;412.47;;
5237;SDS011;2639;49.700;7.962;2022-12-17T07:05:34;471.97;;;451.90;;
5237;SDS011;2639;49.700;7.962;2022-12-17T07:08:55;486.17;;;462.33;;
5237;SDS011;2639;49.700;7.962;2022-12-17T07:12:18;419.10;;;398.57;;
5237;SDS011;2639;49.700;7.962;2022-12-17T07:15:39;419.13;;;399.50;;
5237;SDS011;2639;49.700;7.962;2022-12-17T07:19:00;471.07;;;447.87;;
5237;SDS011;2639;49.700;7.962;2022-12-17T07:22:21;519.97;;;493.70;;
5237;SDS011;2639;49.700;7.962;2022-12-17T07:25:41;535.27;;;508.80;;
5237;SDS011;2639;49.700;7.962;2022-12-17T07:29:03;573.43;;;544.03;;
5237;SDS011;2639;49.700;7.962;2022-12-17T07:32:27;591.70;;;559.33;;
5237;SDS011;2639;49.700;7.962;2022-12-17T07:35:48;639.93;;;604.47;;
5237;SDS011;2639;49.700;7.962;2022-12-17T07:39:09;617.50;;;584.17;;
5237;SDS011;2639;49.700;7.962;2022-12-17T07:42:30;631.77;;;597.77;;
5237;SDS011;2639;49.700;7.962;2022-12-17T07:45:52;633.07;;;599.07;;
5237;SDS011;2639;49.700;7.962;2022-12-17T07:49:12;605.03;;;572.93;;
5237;SDS011;2639;49.700;7.962;2022-12-17T07:52:33;653.67;;;618.93;;
5237;SDS011;2639;49.700;7.962;2022-12-17T07:55:54;631.03;;;597.40;;
5237;SDS011;2639;49.700;7.962;2022-12-17T07:59:15;667.23;;;631.10;;
5237;SDS011;2639;49.700;7.962;2022-12-17T08:02:37;682.20;;;645.10;;
5237;SDS011;2639;49.700;7.962;2022-12-17T08:05:58;726.30;;;684.90;;
5237;SDS011;2639;49.700;7.962;2022-12-17T08:09:19;703.53;;;664.83;;
5237;SDS011;2639;49.700;7.962;2022-12-17T08:12:40;706.67;;;668.00;;
5237;SDS011;2639;49.700;7.962;2022-12-17T08:16:00;756.87;;;711.83;;
5237;SDS011;2639;49.700;7.962;2022-12-17T08:19:23;747.37;;;704.80;;
5237;SDS011;2639;49.700;7.962;2022-12-17T08:22:46;760.90;;;716.20;;
5237;SDS011;2639;49.700;7.962;2022-12-17T08:26:07;745.50;;;702.33;;
5237;SDS011;2639;49.700;7.962;2022-12-17T08:29:28;738.87;;;697.33;;
5237;SDS011;2639;49.700;7.962;2022-12-17T08:32:48;729.60;;;688.73;;
5237;SDS011;2639;49.700;7.962;2022-12-17T08:36:11;721.93;;;680.53;;
5237;SDS011;2639;49.700;7.962;2022-12-17T08:39:31;719.23;;;677.73;;
5237;SDS011;2639;49.700;7.962;2022-12-17T08:42:55;714.70;;;672.37;;
5237;SDS011;2639;49.700;7.962;2022-12-17T08:46:16;754.97;;;711.87;;
5237;SDS011;2639;49.700;7.962;2022-12-17T08:49:37;719.70;;;678.67;;
5237;SDS011;2639;49.700;7.962;2022-12-17T08:52:59;753.77;;;708.07;;
5237;SDS011;2639;49.700;7.962;2022-12-17T08:56:24;735.83;;;693.20;;
5237;SDS011;2639;49.700;7.962;2022-12-17T08:59:45;766.80;;;719.60;;
5237;SDS011;2639;49.700;7.962;2022-12-17T09:03:07;760.33;;;714.67;;
5237;SDS011;2639;49.700;7.962;2022-12-17T09:06:28;797.60;;;741.23;;
5237;SDS011;2639;49.700;7.962;2022-12-17T09:09:53;859.90;;;789.10;;
5237;SDS011;2639;49.700;7.962;2022-12-17T09:13:13;818.93;;;758.00;;
5237;SDS011;2639;49.700;7.962;2022-12-17T09:16:34;873.20;;;810.60;;
5237;SDS011;2639;49.700;7.962;2022-12-17T09:19:55;867.80;;;796.93;;
5237;SDS011;2639;49.700;7.962;2022-12-17T09:23:16;766.47;;;709.20;;
5237;SDS011;2639;49.700;7.962;2022-12-17T09:26:42;919.97;;;843.73;;
5237;SDS011;2639;49.700;7.962;2022-12-17T09:30:03;900.33;;;831.17;;
5237;SDS011;2639;49.700;7.962;2022-12-17T09:33:24;871.27;;;809.67;;
5237;SDS011;2639;49.700;7.962;2022-12-17T09:36:45;875.57;;;814.67;;
5237;SDS011;2639;49.700;7.962;2022-12-17T09:40:07;884.50;;;823.80;;
5237;SDS011;2639;49.700;7.962;2022-12-17T09:43:37;866.67;;;811.33;;
5237;SDS011;2639;49.700;7.962;2022-12-17T09:51:51;900.10;;;837.57;;
5237;SDS011;2639;49.700;7.962;2022-12-17T09:55:13;888.93;;;828.23;;
5237;SDS011;2639;49.700;7.962;2022-12-17T09:58:38;886.17;;;826.57;;
5237;SDS011;2639;49.700;7.962;2022-12-17T10:02:00;864.47;;;808.50;;
5237;SDS011;2639;49.700;7.962;2022-12-17T10:05:23;816.10;;;762.87;;
5237;SDS011;2639;49.700;7.962;2022-12-17T10:08:48;801.83;;;750.30;;
5237;SDS011;2639;49.700;7.962;2022-12-17T10:12:16;863.20;;;804.57;;
5237;SDS011;2639;49.700;7.962;2022-12-17T10:15:41;850.47;;;794.17;;
5237;SDS011;2639;49.700;7.962;2022-12-17T10:19:02;825.57;;;773.03;;
5237;SDS011;2639;49.700;7.962;2022-12-17T10:22:24;848.20;;;793.57;;
5237;SDS011;2639;49.700;7.962;2022-12-17T10:25:50;788.07;;;737.63;;
5237;SDS011;2639;49.700;7.962;2022-12-17T10:29:12;796.33;;;745.07;;
5237;SDS011;2639;49.700;7.962;2022-12-17T10:32:37;841.20;;;783.63;;
5237;SDS011;2639;49.700;7.962;2022-12-17T10:35:58;845.30;;;788.20;;
5237;SDS011;2639;49.700;7.962;2022-12-17T10:39:20;765.43;;;717.63;;
5237;SDS011;2639;49.700;7.962;2022-12-17T10:42:43;799.80;;;749.13;;
5237;SDS011;2639;49.700;7.962;2022-12-17T10:46:08;751.43;;;705.07;;
5237;SDS011;2639;49.700;7.962;2022-12-17T10:49:31;849.50;;;794.90;;
5237;SDS011;2639;49.700;7.962;2022-12-17T10:52:55;827.63;;;774.97;;
5237;SDS011;2639;49.700;7.962;2022-12-17T10:56:18;750.83;;;705.30;;
5237;SDS011;2639;49.700;7.962;2022-12-17T10:59:41;732.50;;;688.97;;
5237;SDS011;2639;49.700;7.962;2022-12-17T11:03:02;674.23;;;635.17;;
5237;SDS011;2639;49.700;7.962;2022-12-17T11:06:26;714.27;;;671.07;;
5237;SDS011;2639;49.700;7.962;2022-12-17T11:09:52;730.57;;;685.63;;
5237;SDS011;2639;49.700;7.962;2022-12-17T11:13:19;795.20;;;745.43;;
5237;SDS011;2639;49.700;7.962;2022-12-17T11:16:48;761.90;;;715.03;;
5237;SDS011;2639;49.700;7.962;2022-12-17T11:20:18;737.63;;;692.40;;
5237;SDS011;2639;49.700;7.962;2022-12-17T11:23:44;755.37;;;708.80;;
5237;SDS011;2639;49.700;7.962;2022-12-17T11:27:09;766.20;;;718.53;;
5237;SDS011;2639;49.700;7.962;2022-12-17T11:30:38;691.07;;;650.77;;
5237;SDS011;2639;49.700;7.962;2022-12-17T11:34:09;854.73;;;799.40;;
5237;SDS011;2639;49.700;7.962;2022-12-17T11:37:40;902.50;;;841.30;;
5237;SDS011;2639;49.700;7.962;2022-12-17T11:41:13;891.67;;;829.17;;
5237;SDS011;2639;49.700;7.962;2022-12-17T11:44:41;799.10;;;748.87;;
5237;SDS011;2639;49.700;7.962;2022-12-17T11:48:10;769.27;;;721.80;;
5237;SDS011;2639;49.700;7.962;2022-12-17T11:51:37;717.23;;;673.90;;
5237;SDS011;2639;49.700;7.962;2022-12-17T11:55:05;758.77;;;712.17;;
5237;SDS011;2639;49.700;7.962;2022-12-17T11:58:35;749.97;;;704.60;;
5237;SDS011;2639;49.700;7.962;2022-12-17T12:02:05;723.00;;;679.37;;
5237;SDS011;2639;49.700;7.962;2022-12-17T12:05:39;742.50;;;697.47;;
5237;SDS011;2639;49.700;7.962;2022-12-17T12:09:06;754.23;;;708.93;;
5237;SDS011;2639;49.700;7.962;2022-12-17T12:12:36;693.90;;;653.87;;
5237;SDS011;2639;49.700;7.962;2022-12-17T12:16:15;678.07;;;638.70;;
5237;SDS011;2639;49.700;7.962;2022-12-17T12:19:49;697.10;;;655.90;;
5237;SDS011;2639;49.700;7.962;2022-12-17T12:23:17;639.43;;;604.37;;
5237;SDS011;2639;49.700;7.962;2022-12-17T12:26:44;731.03;;;686.77;;
5237;SDS011;2639;49.700;7.962;2022-12-17T12:30:13;761.17;;;714.47;;
5237;SDS011;2639;49.700;7.962;2022-12-17T12:33:39;770.47;;;723.33;;
5237;SDS011;2639;49.700;7.962;2022-12-17T12:37:10;777.77;;;729.73;;
5237;SDS011;2639;49.700;7.962;2022-12-17T12:40:34;748.90;;;703.77;;
5237;SDS011;2639;49.700;7.962;2022-12-17T12:44:05;818.33;;;767.37;;
5237;SDS011;2639;49.700;7.962;2022-12-17T12:47:45;789.83;;;741.17;;
5237;SDS011;2639;49.700;7.962;2022-12-17T12:51:12;829.10;;;773.97;;
5237;SDS011;2639;49.700;7.962;2022-12-17T12:54:49;780.23;;;731.93;;
5237;SDS011;2639;49.700;7.962;2022-12-17T12:58:23;766.50;;;719.30;;
5237;SDS011;2639;49.700;7.962;2022-12-17T13:01:45;797.97;;;747.80;;
5237;SDS011;2639;49.700;7.962;2022-12-17T13:05:16;788.13;;;738.97;;
5237;SDS011;2639;49.700;7.962;2022-12-17T13:08:42;850.93;;;793.60;;
5237;SDS011;2639;49.700;7.962;2022-12-17T13:11:53;838.77;;;783.10;;
5237;SDS011;2639;49.700;7.962;2022-12-17T13:15:12;797.60;;;747.20;;
5237;SDS011;2639;49.700;7.962;2022-12-17T13:18:27;824.47;;;770.40;;
5237;SDS011;2639;49.700;7.962;2022-12-17T13:21:41;841.40;;;787.70;;
5237;SDS011;2639;49.700;7.962;2022-12-17T13:24:54;908.30;;;846.80;;
5237;SDS011;2639;49.700;7.962;2022-12-17T13:28:23;897.30;;;834.83;;
5237;SDS011;2639;49.700;7.962;2022-12-17T13:31:40;860.50;;;802.40;;
5237;SDS011;2639;49.700;7.962;2022-12-17T13:35:00;822.97;;;769.73;;
5237;SDS011;2639;49.700;7.962;2022-12-17T13:38:23;807.23;;;758.30;;
5237;SDS011;2639;49.700;7.962;2022-12-17T13:41:40;859.07;;;803.03;;
5237;SDS011;2639;49.700;7.962;2022-12-17T13:44:52;823.90;;;770.20;;
5237;SDS011;2639;49.700;7.962;2022-12-17T13:48:03;826.23;;;772.47;;
5237;SDS011;2639;49.700;7.962;2022-12-17T13:51:16;837.00;;;781.47;;
5237;SDS011;2639;49.700;7.962;2022-12-17T13:54:29;852.97;;;796.00;;
5237;SDS011;2639;49.700;7.962;2022-12-17T13:57:43;845.73;;;790.13;;
5237;SDS011;2639;49.700;7.962;2022-12-17T14:01:03;873.73;;;815.00;;
5237;SDS011;2639;49.700;7.962;2022-12-17T14:04:18;871.93;;;813.47;;
5237;SDS011;2639;49.700;7.962;2022-12-17T14:07:33;857.87;;;800.10;;
5237;SDS011;2639;49.700;7.962;2022-12-17T14:10:48;852.80;;;796.03;;
5237;SDS011;2639;49.700;7.962;2022-12-17T14:14:25;822.27;;;769.13;;
5237;SDS011;2639;49.700;7.962;2022-12-17T14:17:39;826.57;;;773.17;;
5237;SDS011;2639;49.700;7.962;2022-12-17T14:20:52;815.63;;;763.10;;
5237;SDS011;2639;49.700;7.962;2022-12-17T14:24:09;822.37;;;768.90;;
5237;SDS011;2639;49.700;7.962;2022-12-17T14:27:23;830.00;;;775.87;;
5237;SDS011;2639;49.700;7.962;2022-12-17T14:30:37;832.90;;;778.70;;
5237;SDS011;2639;49.700;7.962;2022-12-17T14:34:09;830.10;;;778.27;;
5237;SDS011;2639;49.700;7.962;2022-12-17T14:37:20;814.23;;;765.40;;
5237;SDS011;2639;49.700;7.962;2022-12-17T14:40:33;903.27;;;842.93;;
5237;SDS011;2639;49.700;7.962;2022-12-17T14:43:43;871.63;;;816.57;;
5237;SDS011;2639;49.700;7.962;2022-12-17T14:47:06;858.90;;;804.93;;
5237;SDS011;2639;49.700;7.962;2022-12-17T14:50:24;876.80;;;820.17;;
5237;SDS011;2639;49.700;7.962;2022-12-17T14:53:37;872.57;;;815.90;;
5237;SDS011;2639;49.700;7.962;2022-12-17T14:56:48;888.37;;;829.97;;
5237;SDS011;2639;49.700;7.962;2022-12-17T14:59:58;902.17;;;841.93;;
5237;SDS011;2639;49.700;7.962;2022-12-17T15:03:10;877.90;;;819.47;;
5237;SDS011;2639;49.700;7.962;2022-12-17T15:06:26;847.03;;;791.50;;
5237;SDS011;2639;49.700;7.962;2022-12-17T15:09:36;888.83;;;830.87;;
5237;SDS011;2639;49.700;7.962;2022-12-17T15:12:47;907.40;;;847.27;;
5237;SDS011;2639;49.700;7.962;2022-12-17T15:16:00;919.03;;;857.13;;
5237;SDS011;2639;49.700;7.962;2022-12-17T15:19:12;905.73;;;845.07;;
5237;SDS011;2639;49.700;7.962;2022-12-17T15:22:22;883.47;;;825.03;;
5237;SDS011;2639;49.700;7.962;2022-12-17T15:25:32;871.70;;;816.03;;
5237;SDS011;2639;49.700;7.962;2022-12-17T15:28:51;868.37;;;810.60;;
5237;SDS011;2639;49.700;7.962;2022-12-17T15:32:01;890.47;;;832.03;;
5237;SDS011;2639;49.700;7.962;2022-12-17T15:35:13;890.07;;;830.07;;
5237;SDS011;2639;49.700;7.962;2022-12-17T15:38:23;929.57;;;866.57;;
5237;SDS011;2639;49.700;7.962;2022-12-17T15:41:33;870.57;;;813.10;;
5237;SDS011;2639;49.700;7.962;2022-12-17T15:44:54;823.07;;;770.80;;
5237;SDS011;2639;49.700;7.962;2022-12-17T15:48:04;868.03;;;810.20;;
5237;SDS011;2639;49.700;7.962;2022-12-17T15:51:16;865.60;;;809.30;;
5237;SDS011;2639;49.700;7.962;2022-12-17T15:54:28;864.97;;;807.97;;
5237;SDS011;2639;49.700;7.962;2022-12-17T15:57:38;855.70;;;799.03;;
5237;SDS011;2639;49.700;7.962;2022-12-17T16:00:48;862.10;;;805.27;;
5237;SDS011;2639;49.700;7.962;2022-12-17T16:03:58;852.03;;;796.83;;
5237;SDS011;2639;49.700;7.962;2022-12-17T16:07:10;897.27;;;836.03;;
5237;SDS011;2639;49.700;7.962;2022-12-17T16:10:20;828.50;;;775.30;;
5237;SDS011;2639;49.700;7.962;2022-12-17T16:13:30;899.97;;;839.20;;
5237;SDS011;2639;49.700;7.962;2022-12-17T16:16:41;834.87;;;781.33;;
5237;SDS011;2639;49.700;7.962;2022-12-17T16:19:52;829.07;;;774.67;;
5237;SDS011;2639;49.700;7.962;2022-12-17T16:23:03;888.80;;;830.43;;
5237;SDS011;2639;49.700;7.962;2022-12-17T16:26:13;906.87;;;847.13;;
5237;SDS011;2639;49.700;7.962;2022-12-17T16:29:25;925.00;;;863.37;;
5237;SDS011;2639;49.700;7.962;2022-12-17T16:32:35;890.13;;;831.93;;
5237;SDS011;2639;49.700;7.962;2022-12-17T16:35:49;884.57;;;826.93;;
5237;SDS011;2639;49.700;7.962;2022-12-17T16:39:00;882.40;;;825.43;;
5237;SDS011;2639;49.700;7.962;2022-12-17T16:42:11;871.20;;;814.40;;
5237;SDS011;2639;49.700;7.962;2022-12-17T16:45:21;820.87;;;767.93;;
5237;SDS011;2639;49.700;7.962;2022-12-17T16:48:34;801.87;;;750.53;;
5237;SDS011;2639;49.700;7.962;2022-12-17T16:51:48;798.87;;;748.03;;
5237;SDS011;2639;49.700;7.962;2022-12-17T16:55:03;829.17;;;775.80;;
5237;SDS011;2639;49.700;7.962;2022-12-17T16:58:14;819.47;;;766.87;;
5237;SDS011;2639;49.700;7.962;2022-12-17T17:01:25;780.07;;;730.43;;
5237;SDS011;2639;49.700;7.962;2022-12-17T17:04:37;792.80;;;742.20;;
5237;SDS011;2639;49.700;7.962;2022-12-17T17:07:47;804.87;;;753.07;;
5237;SDS011;2639;49.700;7.962;2022-12-17T17:10:58;790.73;;;740.93;;
5237;SDS011;2639;49.700;7.962;2022-12-17T17:14:15;807.73;;;755.37;;
5237;SDS011;2639;49.700;7.962;2022-12-17T17:17:25;824.87;;;771.57;;
5237;SDS011;2639;49.700;7.962;2022-12-17T17:24:21;790.40;;;740.87;;
5237;SDS011;2639;49.700;7.962;2022-12-17T17:27:34;813.00;;;761.03;;
5237;SDS011;2639;49.700;7.962;2022-12-17T17:30:44;773.33;;;725.33;;
5237;SDS011;2639;49.700;7.962;2022-12-17T17:33:54;785.13;;;736.23;;
5237;SDS011;2639;49.700;7.962;2022-12-17T17:37:05;792.70;;;742.60;;
5237;SDS011;2639;49.700;7.962;2022-12-17T17:40:15;785.57;;;736.60;;
5237;SDS011;2639;49.700;7.962;2022-12-17T17:43:27;789.23;;;739.33;;
5237;SDS011;2639;49.700;7.962;2022-12-17T17:46:37;789.37;;;740.17;;
5237;SDS011;2639;49.700;7.962;2022-12-17T17:49:48;811.03;;;759.80;;
5237;SDS011;2639;49.700;7.962;2022-12-17T17:52:58;803.03;;;752.03;;
5237;SDS011;2639;49.700;7.962;2022-12-17T17:56:10;795.03;;;744.97;;
5237;SDS011;2639;49.700;7.962;2022-12-17T17:59:24;792.17;;;742.10;;
5237;SDS011;2639;49.700;7.962;2022-12-17T18:02:41;787.77;;;737.70;;
5237;SDS011;2639;49.700;7.962;2022-12-17T18:05:54;804.30;;;751.83;;
5237;SDS011;2639;49.700;7.962;2022-12-17T18:09:05;781.27;;;732.30;;
5237;SDS011;2639;49.700;7.962;2022-12-17T18:12:16;751.73;;;705.70;;
5237;SDS011;2639;49.700;7.962;2022-12-17T18:15:38;739.97;;;693.83;;
5237;SDS011;2639;49.700;7.962;2022-12-17T18:18:48;608.20;;;573.37;;
5237;SDS011;2639;49.700;7.962;2022-12-17T18:21:59;722.70;;;676.87;;
5237;SDS011;2639;49.700;7.962;2022-12-17T18:25:09;781.87;;;733.13;;
5237;SDS011;2639;49.700;7.962;2022-12-17T18:28:19;807.27;;;756.47;;
5237;SDS011;2639;49.700;7.962;2022-12-17T18:31:30;669.80;;;631.03;;
5237;SDS011;2639;49.700;7.962;2022-12-17T18:34:41;593.43;;;561.43;;
5237;SDS011;2639;49.700;7.962;2022-12-17T18:37:51;712.47;;;670.60;;
5237;SDS011;2639;49.700;7.962;2022-12-17T18:41:04;793.43;;;744.10;;
5237;SDS011;2639;49.700;7.962;2022-12-17T18:44:36;785.67;;;736.13;;
5237;SDS011;2639;49.700;7.962;2022-12-17T18:47:50;791.73;;;741.30;;
5237;SDS011;2639;49.700;7.962;2022-12-17T18:51:02;804.17;;;752.13;;
5237;SDS011;2639;49.700;7.962;2022-12-17T18:54:14;780.90;;;731.27;;
5237;SDS011;2639;49.700;7.962;2022-12-17T18:57:25;746.87;;;701.07;;
5237;SDS011;2639;49.700;7.962;2022-12-17T19:00:36;645.70;;;607.73;;
5237;SDS011;2639;49.700;7.962;2022-12-17T19:03:48;563.70;;;531.70;;
5237;SDS011;2639;49.700;7.962;2022-12-17T19:06:58;512.67;;;483.97;;
5237;SDS011;2639;49.700;7.962;2022-12-17T19:10:08;574.50;;;542.37;;
5237;SDS011;2639;49.700;7.962;2022-12-17T19:13:19;615.40;;;580.33;;
5237;SDS011;2639;49.700;7.962;2022-12-17T19:16:29;538.30;;;508.73;;
5237;SDS011;2639;49.700;7.962;2022-12-17T19:19:40;497.73;;;470.03;;
5237;SDS011;2639;49.700;7.962;2022-12-17T19:22:50;516.30;;;487.03;;
5237;SDS011;2639;49.700;7.962;2022-12-17T19:26:04;637.90;;;600.63;;
5237;SDS011;2639;49.700;7.962;2022-12-17T19:29:16;547.13;;;516.13;;
5237;SDS011;2639;49.700;7.962;2022-12-17T19:32:27;662.60;;;624.10;;
5237;SDS011;2639;49.700;7.962;2022-12-17T19:35:39;647.93;;;610.03;;
5237;SDS011;2639;49.700;7.962;2022-12-17T19:38:50;552.57;;;521.93;;
5237;SDS011;2639;49.700;7.962;2022-12-17T19:42:00;587.93;;;555.30;;
5237;SDS011;2639;49.700;7.962;2022-12-17T19:45:11;681.23;;;641.93;;
5237;SDS011;2639;49.700;7.962;2022-12-17T19:48:21;611.60;;;577.67;;
5237;SDS011;2639;49.700;7.962;2022-12-17T19:51:32;681.17;;;642.13;;
5237;SDS011;2639;49.700;7.962;2022-12-17T19:54:42;635.13;;;599.83;;
5237;SDS011;2639;49.700;7.962;2022-12-17T19:57:52;580.70;;;547.80;;
5237;SDS011;2639;49.700;7.962;2022-12-17T20:01:04;658.03;;;619.90;;
5237;SDS011;2639;49.700;7.962;2022-12-17T20:04:15;679.77;;;639.33;;
5237;SDS011;2639;49.700;7.962;2022-12-17T20:07:26;669.00;;;630.07;;
5237;SDS011;2639;49.700;7.962;2022-12-17T20:10:36;646.37;;;609.13;;
5237;SDS011;2639;49.700;7.962;2022-12-17T20:13:47;582.23;;;549.10;;
5237;SDS011;2639;49.700;7.962;2022-12-17T20:17:02;592.60;;;558.33;;
5237;SDS011;2639;49.700;7.962;2022-12-17T20:20:13;605.43;;;571.13;;
5237;SDS011;2639;49.700;7.962;2022-12-17T20:23:25;624.33;;;587.90;;
5237;SDS011;2639;49.700;7.962;2022-12-17T20:26:35;596.77;;;562.77;;
5237;SDS011;2639;49.700;7.962;2022-12-17T20:29:45;555.43;;;524.13;;
5237;SDS011;2639;49.700;7.962;2022-12-17T20:32:55;616.00;;;579.97;;
5237;SDS011;2639;49.700;7.962;2022-12-17T20:36:06;592.90;;;559.07;;
5237;SDS011;2639;49.700;7.962;2022-12-17T20:39:19;584.60;;;551.37;;
5237;SDS011;2639;49.700;7.962;2022-12-17T20:42:35;549.63;;;519.57;;
5237;SDS011;2639;49.700;7.962;2022-12-17T20:45:46;599.57;;;565.73;;
5237;SDS011;2639;49.700;7.962;2022-12-17T20:48:57;587.27;;;554.17;;
5237;SDS011;2639;49.700;7.962;2022-12-17T20:52:08;619.17;;;584.00;;
5237;SDS011;2639;49.700;7.962;2022-12-17T20:55:20;613.63;;;578.33;;
5237;SDS011;2639;49.700;7.962;2022-12-17T20:58:38;616.63;;;580.60;;
5237;SDS011;2639;49.700;7.962;2022-12-17T21:01:49;591.30;;;556.43;;
5237;SDS011;2639;49.700;7.962;2022-12-17T21:05:04;558.37;;;529.73;;
5237;SDS011;2639;49.700;7.962;2022-12-17T21:08:14;534.57;;;503.20;;
5237;SDS011;2639;49.700;7.962;2022-12-17T21:11:27;591.60;;;556.57;;
5237;SDS011;2639;49.700;7.962;2022-12-17T21:14:38;570.13;;;536.50;;
5237;SDS011;2639;49.700;7.962;2022-12-17T21:17:48;626.57;;;588.47;;
5237;SDS011;2639;49.700;7.962;2022-12-17T21:21:00;586.47;;;551.20;;
5237;SDS011;2639;49.700;7.962;2022-12-17T21:24:11;577.23;;;547.40;;
5237;SDS011;2639;49.700;7.962;2022-12-17T21:27:23;573.63;;;539.80;;
5237;SDS011;2639;49.700;7.962;2022-12-17T21:30:34;536.87;;;503.47;;
5237;SDS011;2639;49.700;7.962;2022-12-17T21:33:45;411.77;;;387.77;;
5237;SDS011;2639;49.700;7.962;2022-12-17T21:36:56;587.23;;;548.80;;
5237;SDS011;2639;49.700;7.962;2022-12-17T21:40:06;605.13;;;566.77;;
5237;SDS011;2639;49.700;7.962;2022-12-17T21:43:18;649.63;;;606.27;;
5237;SDS011;2639;49.700;7.962;2022-12-17T21:46:28;649.57;;;605.17;;
5237;SDS011;2639;49.700;7.962;2022-12-17T21:49:38;692.60;;;643.57;;
5237;SDS011;2639;49.700;7.962;2022-12-17T21:52:49;754.43;;;699.63;;
5237;SDS011;2639;49.700;7.962;2022-12-17T21:56:00;806.50;;;752.60;;
5237;SDS011;2639;49.700;7.962;2022-12-17T21:59:13;838.00;;;780.27;;
5237;SDS011;2639;49.700;7.962;2022-12-17T22:02:24;869.70;;;809.37;;
5237;SDS011;2639;49.700;7.962;2022-12-17T22:05:34;881.93;;;820.37;;
5237;SDS011;2639;49.700;7.962;2022-12-17T22:08:45;874.47;;;812.63;;
5237;SDS011;2639;49.700;7.962;2022-12-17T22:11:59;872.90;;;812.33;;
5237;SDS011;2639;49.700;7.962;2022-12-17T22:15:25;793.13;;;740.67;;
5237;SDS011;2639;49.700;7.962;2022-12-17T22:18:40;781.20;;;729.03;;
5237;SDS011;2639;49.700;7.962;2022-12-17T22:21:50;810.23;;;756.90;;
5237;SDS011;2639;49.700;7.962;2022-12-17T22:25:05;770.70;;;721.70;;
5237;SDS011;2639;49.700;7.962;2022-12-17T22:28:18;703.37;;;660.67;;
5237;SDS011;2639;49.700;7.962;2022-12-17T22:31:32;710.63;;;665.93;;
5237;SDS011;2639;49.700;7.962;2022-12-17T22:34:56;756.47;;;706.97;;
5237;SDS011;2639;49.700;7.962;2022-12-17T22:38:26;871.10;;;809.93;;
5237;SDS011;2639;49.700;7.962;2022-12-17T22:41:56;833.90;;;776.90;;
5237;SDS011;2639;49.700;7.962;2022-12-17T22:45:38;875.97;;;816.47;;
5237;SDS011;2639;49.700;7.962;2022-12-17T22:48:50;860.57;;;801.83;;
